sensor_id;sensor_type;location;lat;lon;timestamp;pressure;altitude;pressure_sealevel;temperature;humidity
49723;BME280;43484;43.608;1.458;2023-03-18T00:00:14;99204.34;;;11.72;100.00
49723;BME280;43484;43.608;1.458;2023-03-18T00:02:42;99215.41;;;11.69;100.00
49723;BME280;43484;43.608;1.458;2023-03-18T00:05:10;99203.47;;;11.71;100.00
49723;BME280;43484;43.608;1.458;2023-03-18T00:07:37;99198.34;;;11.71;100.00
49723;BME280;43484;43.608;1.458;2023-03-18T00:10:06;99206.91;;;11.70;100.00
49723;BME280;43484;43.608;1.458;2023-03-18T00:12:32;99212.88;;;11.71;100.00
49723;BME280;43484;43.608;1.458;2023-03-18T00:14:59;99208.59;;;11.71;100.00
49723;BME280;43484;43.608;1.458;2023-03-18T00:17:27;99191.53;;;11.73;100.00
49723;BME280;43484;43.608;1.458;2023-03-18T00:19:54;99197.53;;;11.74;100.00
49723;BME280;43484;43.608;1.458;2023-03-18T00:22:21;99202.72;;;11.77;100.00
49723;BME280;43484;43.608;1.458;2023-03-18T00:24:48;99191.59;;;11.78;100.00
49723;BME280;43484;43.608;1.458;2023-03-18T00:27:14;99186.53;;;11.82;100.00
49723;BME280;43484;43.608;1.458;2023-03-18T00:29:41;99189.06;;;11.81;100.00
49723;BME280;43484;43.608;1.458;2023-03-18T00:32:08;99185.66;;;11.80;100.00
49723;BME280;43484;43.608;1.458;2023-03-18T00:34:35;99189.97;;;11.83;100.00
49723;BME280;43484;43.608;1.458;2023-03-18T00:37:02;99192.50;;;11.80;100.00
49723;BME280;43484;43.608;1.458;2023-03-18T00:39:29;99193.34;;;11.79;100.00
49723;BME280;43484;43.608;1.458;2023-03-18T00:41:59;99177.94;;;11.79;100.00
49723;BME280;43484;43.608;1.458;2023-03-18T00:44:33;99173.59;;;11.75;100.00
49723;BME280;43484;43.608;1.458;2023-03-18T00:47:00;99173.66;;;11.81;100.00
49723;BME280;43484;43.608;1.458;2023-03-18T00:49:26;99176.19;;;11.76;100.00
49723;BME280;43484;43.608;1.458;2023-03-18T00:51:53;99163.31;;;11.72;100.00
49723;BME280;43484;43.608;1.458;2023-03-18T00:54:20;99173.66;;;11.79;100.00
49723;BME280;43484;43.608;1.458;2023-03-18T00:56:47;99160.81;;;11.78;100.00
49723;BME280;43484;43.608;1.458;2023-03-18T00:59:15;99160.72;;;11.72;100.00
49723;BME280;43484;43.608;1.458;2023-03-18T01:01:41;99148.75;;;11.72;100.00
49723;BME280;43484;43.608;1.458;2023-03-18T01:04:09;99147.19;;;11.82;100.00
49723;BME280;43484;43.608;1.458;2023-03-18T01:06:37;99150.53;;;11.78;100.00
49723;BME280;43484;43.608;1.458;2023-03-18T01:09:05;99146.22;;;11.74;100.00
49723;BME280;43484;43.608;1.458;2023-03-18T01:11:34;99145.34;;;11.73;100.00
49723;BME280;43484;43.608;1.458;2023-03-18T01:14:01;99143.69;;;11.75;100.00
49723;BME280;43484;43.608;1.458;2023-03-18T01:16:28;99147.16;;;11.79;100.00
49723;BME280;43484;43.608;1.458;2023-03-18T01:18:55;99152.34;;;11.85;100.00
49723;BME280;43484;43.608;1.458;2023-03-18T01:21:22;99154.00;;;11.80;100.00
49723;BME280;43484;43.608;1.458;2023-03-18T01:23:49;99153.97;;;11.78;100.00
49723;BME280;43484;43.608;1.458;2023-03-18T01:26:17;99142.94;;;11.84;100.00
49723;BME280;43484;43.608;1.458;2023-03-18T01:28:44;99142.81;;;11.75;100.00
49723;BME280;43484;43.608;1.458;2023-03-18T01:31:10;99142.03;;;11.79;100.00
49723;BME280;43484;43.608;1.458;2023-03-18T01:33:38;99135.19;;;11.81;100.00
49723;BME280;43484;43.608;1.458;2023-03-18T01:36:06;99133.44;;;11.78;100.00
49723;BME280;43484;43.608;1.458;2023-03-18T01:38:33;99141.16;;;11.78;100.00
49723;BME280;43484;43.608;1.458;2023-03-18T01:41:01;99139.34;;;11.71;100.00
49723;BME280;43484;43.608;1.458;2023-03-18T01:43:34;99131.63;;;11.71;100.00
49723;BME280;43484;43.608;1.458;2023-03-18T01:47:03;99128.28;;;11.74;100.00
49723;BME280;43484;43.608;1.458;2023-03-18T01:51:43;99128.16;;;11.66;100.00
49723;BME280;43484;43.608;1.458;2023-03-18T01:54:13;99132.50;;;11.70;100.00
49723;BME280;43484;43.608;1.458;2023-03-18T01:56:42;99132.47;;;11.69;100.00
49723;BME280;43484;43.608;1.458;2023-03-18T01:59:11;99132.50;;;11.72;100.00
49723;BME280;43484;43.608;1.458;2023-03-18T02:01:46;99133.19;;;11.60;100.00
49723;BME280;43484;43.608;1.458;2023-03-18T02:04:15;99124.72;;;11.66;100.00
49723;BME280;43484;43.608;1.458;2023-03-18T02:06:43;99118.72;;;11.64;100.00
49723;BME280;43484;43.608;1.458;2023-03-18T02:09:10;99135.03;;;11.69;100.00
49723;BME280;43484;43.608;1.458;2023-03-18T02:11:41;99137.53;;;11.66;100.00
49723;BME280;43484;43.608;1.458;2023-03-18T02:14:12;99146.16;;;11.71;100.00
49723;BME280;43484;43.608;1.458;2023-03-18T02:16:47;99155.53;;;11.67;100.00
49723;BME280;43484;43.608;1.458;2023-03-18T02:19:30;99182.03;;;11.68;100.00
49723;BME280;43484;43.608;1.458;2023-03-18T02:22:12;99209.47;;;11.72;100.00
49723;BME280;43484;43.608;1.458;2023-03-18T02:24:54;99233.41;;;11.72;100.00
49723;BME280;43484;43.608;1.458;2023-03-18T02:27:27;99252.00;;;11.59;100.00
49723;BME280;43484;43.608;1.458;2023-03-18T02:29:58;99252.81;;;11.55;100.00
49723;BME280;43484;43.608;1.458;2023-03-18T02:32:30;99248.44;;;11.50;100.00
49723;BME280;43484;43.608;1.458;2023-03-18T02:35:00;99248.38;;;11.47;100.00
49723;BME280;43484;43.608;1.458;2023-03-18T02:37:29;99256.13;;;11.50;100.00
49723;BME280;43484;43.608;1.458;2023-03-18T02:40:14;99266.44;;;11.54;100.00
49723;BME280;43484;43.608;1.458;2023-03-18T02:42:41;99256.34;;;11.63;100.00
49723;BME280;43484;43.608;1.458;2023-03-18T02:45:16;99253.00;;;11.66;100.00
49723;BME280;43484;43.608;1.458;2023-03-18T02:47:48;99249.59;;;11.65;100.00
49723;BME280;43484;43.608;1.458;2023-03-18T02:50:16;99259.00;;;11.66;100.00
49723;BME280;43484;43.608;1.458;2023-03-18T02:52:43;99263.25;;;11.66;100.00
49723;BME280;43484;43.608;1.458;2023-03-18T02:55:10;99271.84;;;11.68;100.00
49723;BME280;43484;43.608;1.458;2023-03-18T02:57:36;99278.78;;;11.73;100.00
49723;BME280;43484;43.608;1.458;2023-03-18T03:00:03;99281.38;;;11.75;100.00
49723;BME280;43484;43.608;1.458;2023-03-18T03:02:31;99275.38;;;11.74;100.00
49723;BME280;43484;43.608;1.458;2023-03-18T03:04:58;99275.97;;;11.60;100.00
49723;BME280;43484;43.608;1.458;2023-03-18T03:07:26;99261.53;;;11.65;100.00
49723;BME280;43484;43.608;1.458;2023-03-18T03:09:53;99258.97;;;11.65;100.00
49723;BME280;43484;43.608;1.458;2023-03-18T03:12:20;99260.56;;;11.60;100.00
49723;BME280;43484;43.608;1.458;2023-03-18T03:14:46;99256.22;;;11.56;100.00
49723;BME280;43484;43.608;1.458;2023-03-18T03:17:13;99251.97;;;11.58;100.00
49723;BME280;43484;43.608;1.458;2023-03-18T03:19:40;99253.66;;;11.56;100.00
49723;BME280;43484;43.608;1.458;2023-03-18T03:22:07;99262.25;;;11.58;100.00
49723;BME280;43484;43.608;1.458;2023-03-18T03:24:34;99264.13;;;11.66;100.00
49723;BME280;43484;43.608;1.458;2023-03-18T03:27:00;99264.16;;;11.69;100.00
49723;BME280;43484;43.608;1.458;2023-03-18T03:29:27;99262.44;;;11.67;100.00
49723;BME280;43484;43.608;1.458;2023-03-18T03:31:54;99262.44;;;11.67;100.00
49723;BME280;43484;43.608;1.458;2023-03-18T03:34:21;99272.66;;;11.64;100.00
49723;BME280;43484;43.608;1.458;2023-03-18T03:36:47;99271.69;;;11.60;100.00
49723;BME280;43484;43.608;1.458;2023-03-18T03:39:15;99274.28;;;11.62;100.00
49723;BME280;43484;43.608;1.458;2023-03-18T03:41:41;99269.16;;;11.62;100.00
49723;BME280;43484;43.608;1.458;2023-03-18T03:44:08;99284.34;;;11.50;100.00
49723;BME280;43484;43.608;1.458;2023-03-18T03:46:35;99284.28;;;11.45;100.00
49723;BME280;43484;43.608;1.458;2023-03-18T03:49:02;99279.19;;;11.48;100.00
49723;BME280;43484;43.608;1.458;2023-03-18T03:51:29;99277.41;;;11.46;100.00
49723;BME280;43484;43.608;1.458;2023-03-18T03:53:57;99278.28;;;11.45;100.00
49723;BME280;43484;43.608;1.458;2023-03-18T03:56:24;99278.28;;;11.46;100.00
49723;BME280;43484;43.608;1.458;2023-03-18T03:58:50;99273.00;;;11.37;100.00
49723;BME280;43484;43.608;1.458;2023-03-18T04:01:17;99266.22;;;11.40;100.00
49723;BME280;43484;43.608;1.458;2023-03-18T04:03:44;99268.47;;;11.22;100.00
49723;BME280;43484;43.608;1.458;2023-03-18T04:06:11;99275.50;;;11.32;100.00
49723;BME280;43484;43.608;1.458;2023-03-18T04:08:38;99278.06;;;11.34;100.00
49723;BME280;43484;43.608;1.458;2023-03-18T04:11:05;99283.97;;;11.28;100.00
49723;BME280;43484;43.608;1.458;2023-03-18T04:13:32;99288.09;;;11.20;100.00
49723;BME280;43484;43.608;1.458;2023-03-18T04:15:59;99291.53;;;11.21;100.00
49723;BME280;43484;43.608;1.458;2023-03-18T04:18:26;99288.25;;;11.29;100.00
49723;BME280;43484;43.608;1.458;2023-03-18T04:20:52;99294.25;;;11.30;100.00
49723;BME280;43484;43.608;1.458;2023-03-18T04:23:20;99301.00;;;11.23;100.00
49723;BME280;43484;43.608;1.458;2023-03-18T04:25:47;99317.94;;;11.17;100.00
49723;BME280;43484;43.608;1.458;2023-03-18T04:28:13;99327.34;;;11.16;100.00
49723;BME280;43484;43.608;1.458;2023-03-18T04:30:40;99329.88;;;11.15;100.00
49723;BME280;43484;43.608;1.458;2023-03-18T04:33:06;99329.97;;;11.21;100.00
49723;BME280;43484;43.608;1.458;2023-03-18T04:35:33;99344.38;;;11.14;100.00
49723;BME280;43484;43.608;1.458;2023-03-18T04:38:00;99345.19;;;11.12;100.00
49723;BME280;43484;43.608;1.458;2023-03-18T04:40:26;99343.34;;;11.03;100.00
49723;BME280;43484;43.608;1.458;2023-03-18T04:42:53;99347.84;;;11.16;100.00
49723;BME280;43484;43.608;1.458;2023-03-18T04:45:20;99361.31;;;11.06;100.00
49723;BME280;43484;43.608;1.458;2023-03-18T04:47:48;99357.16;;;11.11;100.00
49723;BME280;43484;43.608;1.458;2023-03-18T04:50:15;99350.22;;;11.07;100.00
49723;BME280;43484;43.608;1.458;2023-03-18T04:52:42;99348.31;;;10.97;100.00
49723;BME280;43484;43.608;1.458;2023-03-18T04:55:11;99349.31;;;11.05;100.00
49723;BME280;43484;43.608;1.458;2023-03-18T04:57:39;99349.97;;;10.95;100.00
49723;BME280;43484;43.608;1.458;2023-03-18T05:00:10;99360.22;;;10.95;100.00
49723;BME280;43484;43.608;1.458;2023-03-18T05:02:38;99345.84;;;11.02;100.00
49723;BME280;43484;43.608;1.458;2023-03-18T05:05:06;99346.75;;;11.05;100.00
49723;BME280;43484;43.608;1.458;2023-03-18T05:07:33;99348.38;;;11.00;100.00
49723;BME280;43484;43.608;1.458;2023-03-18T05:09:59;99358.72;;;11.03;100.00
49723;BME280;43484;43.608;1.458;2023-03-18T05:12:26;99377.53;;;11.05;100.00
49723;BME280;43484;43.608;1.458;2023-03-18T05:14:53;99387.03;;;11.11;100.00
49723;BME280;43484;43.608;1.458;2023-03-18T05:17:20;99402.16;;;10.99;100.00
49723;BME280;43484;43.608;1.458;2023-03-18T05:19:47;99396.88;;;10.90;100.00
49723;BME280;43484;43.608;1.458;2023-03-18T05:22:16;99393.31;;;10.83;100.00
49723;BME280;43484;43.608;1.458;2023-03-18T05:24:43;99393.16;;;10.77;100.00
49723;BME280;43484;43.608;1.458;2023-03-18T05:27:13;99385.75;;;10.89;100.00
49723;BME280;43484;43.608;1.458;2023-03-18T05:29:40;99380.53;;;10.85;100.00
49723;BME280;43484;43.608;1.458;2023-03-18T05:32:09;99378.09;;;10.91;100.00
49723;BME280;43484;43.608;1.458;2023-03-18T05:34:37;99384.91;;;10.90;100.00
49723;BME280;43484;43.608;1.458;2023-03-18T05:37:06;99394.31;;;10.90;100.00
49723;BME280;43484;43.608;1.458;2023-03-18T05:39:33;99413.31;;;11.01;100.00
49723;BME280;43484;43.608;1.458;2023-03-18T05:42:00;99428.66;;;10.99;100.00
49723;BME280;43484;43.608;1.458;2023-03-18T05:44:27;99436.16;;;10.90;100.00
49723;BME280;43484;43.608;1.458;2023-03-18T05:46:55;99438.81;;;10.95;100.00
49723;BME280;43484;43.608;1.458;2023-03-18T05:49:22;99449.16;;;10.99;100.00
49723;BME280;43484;43.608;1.458;2023-03-18T05:51:49;99446.34;;;10.87;100.00
49723;BME280;43484;43.608;1.458;2023-03-18T05:54:18;99453.84;;;10.78;100.00
49723;BME280;43484;43.608;1.458;2023-03-18T05:56:45;99452.59;;;10.61;100.00
49723;BME280;43484;43.608;1.458;2023-03-18T05:59:12;99446.19;;;10.80;100.00
49723;BME280;43484;43.608;1.458;2023-03-18T06:01:39;99441.81;;;10.76;100.00
49723;BME280;43484;43.608;1.458;2023-03-18T06:04:07;99437.75;;;10.85;100.00
49723;BME280;43484;43.608;1.458;2023-03-18T06:06:35;99443.72;;;10.84;100.00
49723;BME280;43484;43.608;1.458;2023-03-18T06:09:06;99449.84;;;10.91;100.00
49723;BME280;43484;43.608;1.458;2023-03-18T06:11:33;99449.88;;;10.94;100.00
49723;BME280;43484;43.608;1.458;2023-03-18T06:13:59;99440.75;;;11.05;100.00
49723;BME280;43484;43.608;1.458;2023-03-18T06:16:26;99450.97;;;11.03;100.00
49723;BME280;43484;43.608;1.458;2023-03-18T06:18:53;99453.44;;;11.00;100.00
49723;BME280;43484;43.608;1.458;2023-03-18T06:21:21;99452.56;;;10.98;100.00
49723;BME280;43484;43.608;1.458;2023-03-18T06:23:48;99448.25;;;10.97;100.00
49723;BME280;43484;43.608;1.458;2023-03-18T06:26:15;99445.84;;;11.03;100.00
49723;BME280;43484;43.608;1.458;2023-03-18T06:28:42;99453.59;;;11.06;100.00
49723;BME280;43484;43.608;1.458;2023-03-18T06:31:08;99454.41;;;11.05;100.00
49723;BME280;43484;43.608;1.458;2023-03-18T06:33:36;99455.50;;;11.15;100.00
49723;BME280;43484;43.608;1.458;2023-03-18T06:36:03;99467.50;;;11.17;100.00
49723;BME280;43484;43.608;1.458;2023-03-18T06:38:31;99468.38;;;11.18;100.00
49723;BME280;43484;43.608;1.458;2023-03-18T06:40:58;99466.75;;;11.21;100.00
49723;BME280;43484;43.608;1.458;2023-03-18T06:43:25;99467.75;;;11.29;100.00
49723;BME280;43484;43.608;1.458;2023-03-18T06:45:52;99475.34;;;11.25;100.00
49723;BME280;43484;43.608;1.458;2023-03-18T06:48:19;99477.94;;;11.26;100.00
49723;BME280;43484;43.608;1.458;2023-03-18T06:50:46;99483.03;;;11.23;100.00
49723;BME280;43484;43.608;1.458;2023-03-18T06:53:12;99483.88;;;11.24;100.00
49723;BME280;43484;43.608;1.458;2023-03-18T06:55:39;99476.94;;;11.18;100.00
49723;BME280;43484;43.608;1.458;2023-03-18T06:58:06;99473.53;;;11.19;100.00
49723;BME280;43484;43.608;1.458;2023-03-18T07:00:33;99470.09;;;11.20;100.00
49723;BME280;43484;43.608;1.458;2023-03-18T07:03:01;99470.94;;;11.18;100.00
49723;BME280;43484;43.608;1.458;2023-03-18T07:05:28;99468.34;;;11.16;100.00
49723;BME280;43484;43.608;1.458;2023-03-18T07:07:54;99466.59;;;11.15;100.00
49723;BME280;43484;43.608;1.458;2023-03-18T07:10:27;99461.59;;;11.21;100.00
49723;BME280;43484;43.608;1.458;2023-03-18T07:12:55;99470.25;;;11.26;100.00
49723;BME280;43484;43.608;1.458;2023-03-18T07:15:22;99464.34;;;11.30;100.00
49723;BME280;43484;43.608;1.458;2023-03-18T07:17:49;99470.38;;;11.32;100.00
49723;BME280;43484;43.608;1.458;2023-03-18T07:20:18;99466.06;;;11.30;100.00
49723;BME280;43484;43.608;1.458;2023-03-18T07:22:45;99465.25;;;11.32;100.00
49723;BME280;43484;43.608;1.458;2023-03-18T07:25:12;99465.31;;;11.37;100.00
49723;BME280;43484;43.608;1.458;2023-03-18T07:27:40;99466.25;;;11.40;100.00
49723;BME280;43484;43.608;1.458;2023-03-18T07:30:08;99470.50;;;11.38;100.00
49723;BME280;43484;43.608;1.458;2023-03-18T07:32:36;99455.25;;;11.46;100.00
49723;BME280;43484;43.608;1.458;2023-03-18T07:35:04;99452.63;;;11.42;100.00
49723;BME280;43484;43.608;1.458;2023-03-18T07:37:32;99441.50;;;11.43;100.00
49723;BME280;43484;43.608;1.458;2023-03-18T07:39:59;99444.97;;;11.45;100.00
49723;BME280;43484;43.608;1.458;2023-03-18T07:42:25;99439.81;;;11.43;100.00
49723;BME280;43484;43.608;1.458;2023-03-18T07:44:52;99441.75;;;11.55;100.00
49723;BME280;43484;43.608;1.458;2023-03-18T07:47:18;99434.06;;;11.55;100.00
49723;BME280;43484;43.608;1.458;2023-03-18T07:49:46;99445.38;;;11.64;100.00
49723;BME280;43484;43.608;1.458;2023-03-18T07:52:13;99437.59;;;11.61;100.00
49723;BME280;43484;43.608;1.458;2023-03-18T07:54:39;99440.13;;;11.58;100.00
49723;BME280;43484;43.608;1.458;2023-03-18T07:57:07;99436.00;;;11.65;100.00
49723;BME280;43484;43.608;1.458;2023-03-18T07:59:33;99446.38;;;11.72;100.00
49723;BME280;43484;43.608;1.458;2023-03-18T08:02:00;99445.59;;;11.75;100.00
49723;BME280;43484;43.608;1.458;2023-03-18T08:04:27;99445.88;;;11.90;100.00
49723;BME280;43484;43.608;1.458;2023-03-18T08:06:55;99446.03;;;11.99;100.00
49723;BME280;43484;43.608;1.458;2023-03-18T08:09:23;99457.97;;;11.97;100.00
49723;BME280;43484;43.608;1.458;2023-03-18T08:11:50;99454.59;;;12.01;100.00
49723;BME280;43484;43.608;1.458;2023-03-18T08:14:16;99452.84;;;11.97;100.00
49723;BME280;43484;43.608;1.458;2023-03-18T08:16:43;99462.41;;;12.05;100.00
49723;BME280;43484;43.608;1.458;2023-03-18T08:19:10;99457.31;;;12.08;100.00
49723;BME280;43484;43.608;1.458;2023-03-18T08:21:37;99450.56;;;12.13;100.00
49723;BME280;43484;43.608;1.458;2023-03-18T08:24:05;99443.91;;;12.26;100.00
49723;BME280;43484;43.608;1.458;2023-03-18T08:26:31;99454.66;;;12.56;100.00
49723;BME280;43484;43.608;1.458;2023-03-18T08:28:58;99465.06;;;12.62;100.00
49723;BME280;43484;43.608;1.458;2023-03-18T08:31:25;99464.34;;;12.71;100.00
49723;BME280;43484;43.608;1.458;2023-03-18T08:33:51;99466.91;;;12.71;100.00
49723;BME280;43484;43.608;1.458;2023-03-18T08:36:22;99467.75;;;12.71;100.00
49723;BME280;43484;43.608;1.458;2023-03-18T08:38:48;99472.13;;;12.77;100.00
49723;BME280;43484;43.608;1.458;2023-03-18T08:41:15;99476.47;;;12.81;100.00
49723;BME280;43484;43.608;1.458;2023-03-18T08:43:42;99497.31;;;12.99;100.00
49723;BME280;43484;43.608;1.458;2023-03-18T08:46:10;99513.00;;;13.15;100.00
49723;BME280;43484;43.608;1.458;2023-03-18T08:48:37;99520.88;;;13.27;100.00
49723;BME280;43484;43.608;1.458;2023-03-18T08:51:04;99532.16;;;13.37;100.00
49723;BME280;43484;43.608;1.458;2023-03-18T08:53:34;99548.75;;;13.60;100.00
49723;BME280;43484;43.608;1.458;2023-03-18T08:56:01;99556.59;;;13.67;100.00
49723;BME280;43484;43.608;1.458;2023-03-18T08:58:28;99560.13;;;13.77;100.00
49723;BME280;43484;43.608;1.458;2023-03-18T09:00:55;99573.16;;;13.89;100.00
49723;BME280;43484;43.608;1.458;2023-03-18T09:03:22;99563.75;;;13.93;100.00
49723;BME280;43484;43.608;1.458;2023-03-18T09:05:50;99569.81;;;13.98;100.00
49723;BME280;43484;43.608;1.458;2023-03-18T09:08:21;99573.19;;;13.94;100.00
49723;BME280;43484;43.608;1.458;2023-03-18T09:10:52;99576.81;;;14.09;100.00
49723;BME280;43484;43.608;1.458;2023-03-18T09:13:20;99579.41;;;14.09;100.00
49723;BME280;43484;43.608;1.458;2023-03-18T09:15:47;99582.91;;;14.16;100.00
49723;BME280;43484;43.608;1.458;2023-03-18T09:18:15;99577.78;;;14.19;100.00
49723;BME280;43484;43.608;1.458;2023-03-18T09:20:44;99585.50;;;14.19;100.00
49723;BME280;43484;43.608;1.458;2023-03-18T09:23:12;99581.13;;;14.12;100.00
49723;BME280;43484;43.608;1.458;2023-03-18T09:25:39;99583.00;;;14.23;100.00
49723;BME280;43484;43.608;1.458;2023-03-18T09:28:08;99584.00;;;14.34;100.00
49723;BME280;43484;43.608;1.458;2023-03-18T09:30:35;99582.34;;;14.39;100.00
49723;BME280;43484;43.608;1.458;2023-03-18T09:33:02;99577.97;;;14.34;100.00
49723;BME280;43484;43.608;1.458;2023-03-18T09:35:32;99587.53;;;14.47;100.00
49723;BME280;43484;43.608;1.458;2023-03-18T09:37:59;99573.88;;;14.54;100.00
49723;BME280;43484;43.608;1.458;2023-03-18T09:40:29;99573.03;;;14.53;100.00
49723;BME280;43484;43.608;1.458;2023-03-18T09:49:11;99575.66;;;14.58;100.00
49723;BME280;43484;43.608;1.458;2023-03-18T09:57:25;99585.22;;;14.74;100.00
49723;BME280;43484;43.608;1.458;2023-03-18T10:00:32;99582.53;;;14.62;100.00
49723;BME280;43484;43.608;1.458;2023-03-18T10:03:09;99585.19;;;14.68;100.00
49723;BME280;43484;43.608;1.458;2023-03-18T10:08:18;99578.22;;;14.56;100.00
49723;BME280;43484;43.608;1.458;2023-03-18T10:10:47;99583.34;;;14.55;100.00
49723;BME280;43484;43.608;1.458;2023-03-18T10:13:25;99564.44;;;14.56;100.00
49723;BME280;43484;43.608;1.458;2023-03-18T10:15:56;99567.91;;;14.56;100.00
49723;BME280;43484;43.608;1.458;2023-03-18T10:18:28;99563.50;;;14.43;100.00
49723;BME280;43484;43.608;1.458;2023-03-18T10:26:31;99553.34;;;14.64;100.00
49723;BME280;43484;43.608;1.458;2023-03-18T10:35:23;99557.72;;;14.73;100.00
49723;BME280;43484;43.608;1.458;2023-03-18T10:40:24;99555.19;;;14.80;100.00
49723;BME280;43484;43.608;1.458;2023-03-18T10:42:52;99548.34;;;14.84;100.00
49723;BME280;43484;43.608;1.458;2023-03-18T10:45:24;99547.56;;;14.91;100.00
49723;BME280;43484;43.608;1.458;2023-03-18T10:48:04;99550.13;;;14.88;100.00
49723;BME280;43484;43.608;1.458;2023-03-18T10:50:40;99554.50;;;14.99;100.00
49723;BME280;43484;43.608;1.458;2023-03-18T10:53:20;99550.16;;;14.95;100.00
49723;BME280;43484;43.608;1.458;2023-03-18T10:56:05;99545.84;;;14.91;100.00
49723;BME280;43484;43.608;1.458;2023-03-18T10:58:32;99551.03;;;14.96;100.00
49723;BME280;43484;43.608;1.458;2023-03-18T11:00:59;99553.59;;;14.94;100.00
49723;BME280;43484;43.608;1.458;2023-03-18T11:03:30;99551.03;;;14.96;100.00
49723;BME280;43484;43.608;1.458;2023-03-18T11:06:00;99563.16;;;15.07;100.00
49723;BME280;43484;43.608;1.458;2023-03-18T11:11:22;99561.47;;;15.11;100.00
49723;BME280;43484;43.608;1.458;2023-03-18T11:13:53;99565.78;;;15.14;100.00
49723;BME280;43484;43.608;1.458;2023-03-18T11:16:33;99558.97;;;15.26;100.00
49723;BME280;43484;43.608;1.458;2023-03-18T11:19:30;99561.63;;;15.38;100.00
49723;BME280;43484;43.608;1.458;2023-03-18T11:22:00;99558.22;;;15.39;100.00
49723;BME280;43484;43.608;1.458;2023-03-18T11:24:30;99567.63;;;15.34;100.00
49723;BME280;43484;43.608;1.458;2023-03-18T11:29:44;99571.13;;;15.41;100.00
49723;BME280;43484;43.608;1.458;2023-03-18T11:32:51;99574.63;;;15.47;100.00
49723;BME280;43484;43.608;1.458;2023-03-18T11:35:24;99579.00;;;15.62;100.00
49723;BME280;43484;43.608;1.458;2023-03-18T11:38:01;99573.91;;;15.74;100.00
49723;BME280;43484;43.608;1.458;2023-03-18T11:40:28;99575.69;;;15.84;100.00
49723;BME280;43484;43.608;1.458;2023-03-18T11:42:59;99569.69;;;15.94;100.00
49723;BME280;43484;43.608;1.458;2023-03-18T11:45:35;99561.91;;;15.89;100.00
49723;BME280;43484;43.608;1.458;2023-03-18T11:48:13;99565.31;;;15.81;100.00
49723;BME280;43484;43.608;1.458;2023-03-18T11:50:52;99567.94;;;15.91;100.00
49723;BME280;43484;43.608;1.458;2023-03-18T12:01:32;99558.56;;;16.26;100.00
49723;BME280;43484;43.608;1.458;2023-03-18T12:07:03;99565.44;;;16.21;100.00
49723;BME280;43484;43.608;1.458;2023-03-18T12:15:04;99555.06;;;16.06;100.00
49723;BME280;43484;43.608;1.458;2023-03-18T12:18:01;99552.50;;;16.02;100.00
49723;BME280;43484;43.608;1.458;2023-03-18T12:20:39;99557.66;;;16.06;100.00
49723;BME280;43484;43.608;1.458;2023-03-18T12:26:00;99558.53;;;16.02;100.00
49723;BME280;43484;43.608;1.458;2023-03-18T12:34:03;99551.69;;;16.24;100.00
49723;BME280;43484;43.608;1.458;2023-03-18T12:39:50;99551.66;;;16.16;100.00
49723;BME280;43484;43.608;1.458;2023-03-18T12:47:51;99543.97;;;16.38;100.00
49723;BME280;43484;43.608;1.458;2023-03-18T12:50:26;99551.69;;;16.33;100.00
49723;BME280;43484;43.608;1.458;2023-03-18T12:53:01;99543.91;;;16.19;100.00
49723;BME280;43484;43.608;1.458;2023-03-18T12:55:35;99538.75;;;16.19;100.00
49723;BME280;43484;43.608;1.458;2023-03-18T12:58:10;99537.91;;;16.20;100.00
49723;BME280;43484;43.608;1.458;2023-03-18T13:01:01;99532.72;;;16.26;100.00
49723;BME280;43484;43.608;1.458;2023-03-18T13:03:35;99530.22;;;16.49;100.00
49723;BME280;43484;43.608;1.458;2023-03-18T13:06:38;99523.31;;;16.51;100.00
49723;BME280;43484;43.608;1.458;2023-03-18T13:11:51;99519.88;;;16.52;100.00
49723;BME280;43484;43.608;1.458;2023-03-18T13:17:33;99525.91;;;16.54;100.00
49723;BME280;43484;43.608;1.458;2023-03-18T13:25:43;99526.72;;;16.40;100.00
49723;BME280;43484;43.608;1.458;2023-03-18T13:42:29;99516.41;;;16.44;100.00
49723;BME280;43484;43.608;1.458;2023-03-18T13:47:36;99511.19;;;16.32;100.00
49723;BME280;43484;43.608;1.458;2023-03-18T13:50:05;99513.81;;;16.52;100.00
49723;BME280;43484;43.608;1.458;2023-03-18T13:52:40;99502.63;;;16.60;100.00
49723;BME280;43484;43.608;1.458;2023-03-18T13:55:25;99516.41;;;16.70;100.00
49723;BME280;43484;43.608;1.458;2023-03-18T14:00:38;99508.66;;;16.62;100.00
49723;BME280;43484;43.608;1.458;2023-03-18T14:03:25;99500.00;;;16.81;100.00
49723;BME280;43484;43.608;1.458;2023-03-18T14:13:49;99493.13;;;16.88;100.00
49723;BME280;43484;43.608;1.458;2023-03-18T14:16:20;99494.84;;;16.86;100.00
49723;BME280;43484;43.608;1.458;2023-03-18T14:18:56;99496.59;;;16.79;100.00
49723;BME280;43484;43.608;1.458;2023-03-18T14:21:25;99487.94;;;16.85;100.00
49723;BME280;43484;43.608;1.458;2023-03-18T14:24:21;99484.50;;;17.01;100.00
49723;BME280;43484;43.608;1.458;2023-03-18T14:32:04;99487.78;;;17.57;100.00
49723;BME280;43484;43.608;1.458;2023-03-18T14:34:56;99478.31;;;17.56;100.00
49723;BME280;43484;43.608;1.458;2023-03-18T14:37:30;99478.31;;;17.50;100.00
49723;BME280;43484;43.608;1.458;2023-03-18T14:40:00;99480.97;;;17.21;100.00
49723;BME280;43484;43.608;1.458;2023-03-18T14:42:52;99477.47;;;17.30;100.00
49723;BME280;43484;43.608;1.458;2023-03-18T14:45:31;99482.69;;;17.27;100.00
49723;BME280;43484;43.608;1.458;2023-03-18T14:48:02;99477.56;;;17.18;100.00
49723;BME280;43484;43.608;1.458;2023-03-18T14:50:44;99475.03;;;16.89;100.00
49723;BME280;43484;43.608;1.458;2023-03-18T14:53:33;99472.44;;;16.88;100.00
49723;BME280;43484;43.608;1.458;2023-03-18T14:56:01;99469.84;;;16.79;100.00
49723;BME280;43484;43.608;1.458;2023-03-18T14:58:29;99464.66;;;16.92;100.00